createdAt,value
2023-02-09T00:04:07.726Z,613.56522
2023-02-09T00:09:09.460Z,613.56522
2023-02-09T00:14:11.135Z,585.66667
2023-02-09T00:19:12.983Z,620.92308
2023-02-09T00:24:14.548Z,606.36559
2023-02-09T00:29:16.354Z,592.42105
2023-02-09T00:34:18.013Z,677.33333
2023-02-09T00:39:19.630Z,723.74684
2023-02-09T00:44:21.381Z,660.27907
2023-02-09T00:49:23.087Z,677.33333
2023-02-09T00:54:24.750Z,686.16867
2023-02-09T00:59:26.383Z,668.70588
2023-02-09T01:04:28.168Z,660.27907
2023-02-09T01:09:30.047Z,733.74359
2023-02-09T01:14:31.694Z,733.74359
2023-02-09T01:19:33.311Z,620.92308
2023-02-09T01:24:35.010Z,628.44444
2023-02-09T01:29:36.615Z,613.56522
2023-02-09T01:34:38.192Z,606.36559
2023-02-09T01:39:39.796Z,628.44444
2023-02-09T01:44:41.556Z,754.52632
2023-02-09T01:49:43.175Z,733.74359
2023-02-09T01:54:45.103Z,677.33333
2023-02-09T01:59:46.751Z,714
2023-02-09T02:04:48.370Z,744
2023-02-09T02:09:49.989Z,668.70588
2023-02-09T02:14:51.766Z,695.21951
2023-02-09T02:19:53.410Z,695.21951
2023-02-09T02:24:55.044Z,695.21951
2023-02-09T02:29:56.640Z,677.33333
2023-02-09T02:34:58.244Z,695.21951
2023-02-09T02:39:59.896Z,733.74359
2023-02-09T02:45:02.573Z,714
2023-02-09T02:50:04.193Z,714
2023-02-09T02:55:05.781Z,733.74359
2023-02-09T03:00:07.627Z,744
2023-02-09T03:05:09.479Z,765.33333
2023-02-09T03:10:11.150Z,765.33333
2023-02-09T03:15:12.759Z,723.74684
2023-02-09T03:20:14.376Z,686.16867
2023-02-09T03:25:16.680Z,686.16867
2023-02-09T03:30:18.260Z,836.75362
2023-02-09T03:35:19.911Z,787.83562
2023-02-09T03:40:21.684Z,765.33333
2023-02-09T03:45:23.411Z,733.74359
2023-02-09T03:50:25.069Z,733.74359
2023-02-09T03:55:27.029Z,776.43243
2023-02-09T04:00:28.803Z,765.33333
2023-02-09T04:05:30.469Z,787.83562
2023-02-09T04:10:32.134Z,765.33333
2023-02-09T04:15:33.767Z,723.74684
2023-02-09T04:20:35.527Z,714
2023-02-09T04:25:37.134Z,677.33333
2023-02-09T04:30:38.771Z,660.27907
2023-02-09T04:35:40.406Z,668.70588
2023-02-09T04:40:41.963Z,644
2023-02-09T04:45:43.697Z,613.56522
2023-02-09T04:50:45.701Z,644
2023-02-09T04:55:47.621Z,652.04598
2023-02-09T05:00:49.369Z,677.33333
2023-02-09T05:05:51.002Z,704.49383
2023-02-09T05:10:52.587Z,714
2023-02-09T05:15:54.314Z,695.21951
2023-02-09T05:20:55.911Z,714
2023-02-09T05:25:57.697Z,723.74684
2023-02-09T05:30:59.540Z,776.43243
2023-02-09T05:36:01.796Z,744
2023-02-09T05:41:03.598Z,723.74684
2023-02-09T05:46:07.827Z,744
2023-02-09T05:51:10.040Z,776.43243
2023-02-09T05:56:11.656Z,811.60563
2023-02-09T06:01:13.259Z,811.60563
2023-02-09T06:06:15.015Z,811.60563
2023-02-09T06:11:16.618Z,776.43243
2023-02-09T06:16:18.265Z,765.33333
2023-02-09T06:21:19.865Z,765.33333
2023-02-09T06:26:21.468Z,733.74359
2023-02-09T06:31:23.307Z,714
2023-02-09T06:36:24.961Z,714
2023-02-09T06:41:26.597Z,714
2023-02-09T06:46:28.310Z,714
2023-02-09T06:51:30.014Z,723.74684
2023-02-09T06:56:31.837Z,744
2023-02-09T07:01:33.510Z,714
2023-02-09T07:06:35.249Z,765.33333
2023-02-09T07:11:36.821Z,787.83562
2023-02-09T07:16:38.454Z,754.52632
2023-02-09T07:21:40.081Z,733.74359
2023-02-09T07:26:41.724Z,744
2023-02-09T07:31:43.523Z,744
2023-02-09T07:36:47.634Z,754.52632
2023-02-09T07:41:49.563Z,744
2023-02-09T07:46:51.242Z,754.52632
2023-02-09T07:51:52.895Z,811.60563
2023-02-09T07:56:54.518Z,849.88235
2023-02-09T08:01:56.242Z,799.55556
2023-02-09T08:06:57.862Z,776.43243
2023-02-09T08:11:59.506Z,776.43243
2023-02-09T08:17:01.646Z,799.55556
2023-02-09T08:22:03.267Z,776.43243
2023-02-09T08:27:04.889Z,765.33333
2023-02-09T08:32:06.581Z,776.43243
2023-02-09T08:37:08.279Z,787.83562
2023-02-09T08:42:10.091Z,787.83562
2023-02-09T08:47:11.857Z,799.55556
2023-02-09T08:52:13.598Z,799.55556
2023-02-09T08:57:15.297Z,811.60563
2023-02-09T09:02:16.906Z,776.43243
2023-02-09T09:07:18.647Z,811.60563
2023-02-09T09:12:20.328Z,799.55556
2023-02-09T09:17:22.180Z,811.60563
2023-02-09T09:22:23.767Z,811.60563
2023-02-09T09:27:26.994Z,836.75362
2023-02-09T09:32:28.940Z,799.55556
2023-02-09T09:37:30.617Z,799.55556
2023-02-09T09:42:32.206Z,799.55556
2023-02-09T09:47:33.827Z,811.60563
2023-02-09T09:52:35.541Z,824
2023-02-09T09:57:37.161Z,811.60563
2023-02-09T10:02:38.882Z,836.75362
2023-02-09T10:07:40.501Z,824
2023-02-09T10:12:42.116Z,836.75362
2023-02-09T10:17:44.025Z,877.33333
2023-02-09T10:22:45.611Z,906.5
2023-02-09T10:27:47.247Z,906.5
2023-02-09T10:32:48.969Z,891.69231
2023-02-09T10:37:50.636Z,849.88235
2023-02-09T10:42:52.295Z,836.75362
2023-02-09T10:47:53.896Z,877.33333
2023-02-09T10:52:55.525Z,906.5
2023-02-09T10:57:57.138Z,849.88235
2023-02-09T11:02:58.896Z,824
2023-02-09T11:08:00.714Z,849.88235
2023-02-09T11:13:02.531Z,877.33333
2023-02-09T11:18:04.259Z,849.88235
2023-02-09T11:23:05.978Z,836.75362
2023-02-09T11:28:07.733Z,849.88235
2023-02-09T11:33:09.368Z,836.75362
2023-02-09T11:38:11.059Z,824
2023-02-09T11:43:12.704Z,849.88235
2023-02-09T11:48:14.362Z,863.40299
2023-02-09T11:53:15.983Z,849.88235
2023-02-09T11:58:17.706Z,811.60563
2023-02-09T12:03:19.321Z,799.55556
2023-02-09T12:08:21.028Z,836.75362
2023-02-09T12:13:22.690Z,824
2023-02-09T12:18:24.273Z,849.88235
2023-02-09T12:23:25.938Z,836.75362
2023-02-09T12:28:27.654Z,824
2023-02-09T12:33:29.256Z,849.88235
2023-02-09T12:38:30.883Z,824
2023-02-09T12:43:32.514Z,836.75362
2023-02-09T12:48:34.146Z,811.60563
2023-02-09T12:53:35.771Z,849.88235
2023-02-09T12:58:37.399Z,824
2023-02-09T13:03:39.129Z,836.75362
2023-02-09T13:08:40.767Z,836.75362
2023-02-09T13:13:42.439Z,811.60563
2023-02-09T13:18:44.079Z,863.40299
2023-02-09T13:23:45.715Z,811.60563
2023-02-09T13:28:47.340Z,799.55556
2023-02-09T13:33:48.982Z,836.75362
2023-02-09T13:38:50.630Z,824
2023-02-09T13:43:52.345Z,787.83562
2023-02-09T13:48:54.075Z,765.33333
2023-02-09T13:53:55.756Z,799.55556
2023-02-09T13:58:57.523Z,733.74359
2023-02-09T14:03:59.161Z,776.43243
2023-02-09T14:09:00.822Z,754.52632
2023-02-09T14:14:02.541Z,776.43243
2023-02-09T14:19:04.121Z,811.60563
2023-02-09T14:24:06.706Z,836.75362
2023-02-09T14:29:09.606Z,776.43243
2023-02-09T14:34:12.538Z,733.74359
2023-02-09T14:39:14.238Z,744
2023-02-09T14:44:15.850Z,723.74684
2023-02-09T14:49:17.479Z,714
2023-02-09T14:54:19.075Z,733.74359
2023-02-09T14:59:20.730Z,754.52632
2023-02-09T15:04:22.366Z,695.21951
2023-02-09T15:09:23.971Z,733.74359
2023-02-09T15:14:25.773Z,723.74684
2023-02-09T15:19:27.658Z,714
2023-02-09T15:24:29.327Z,704.49383
2023-02-09T15:29:31.038Z,714
2023-02-09T15:34:32.878Z,723.74684
2023-02-09T15:39:34.496Z,733.74359
2023-02-09T15:44:36.161Z,723.74684
2023-02-09T15:49:37.805Z,704.49383
2023-02-09T15:54:39.436Z,704.49383
2023-02-09T15:59:41.064Z,714
2023-02-09T16:04:42.687Z,704.49383
2023-02-09T16:09:44.375Z,704.49383
2023-02-09T16:14:46.249Z,733.74359
2023-02-09T16:19:47.864Z,704.49383
2023-02-09T16:24:49.481Z,695.21951
2023-02-09T16:29:51.143Z,547.92157
2023-02-09T16:34:52.797Z,652.04598
2023-02-09T16:39:54.478Z,686.16867
2023-02-09T16:44:56.144Z,704.49383
2023-02-09T16:49:57.769Z,714
2023-02-09T16:54:59.457Z,754.52632
2023-02-09T17:00:01.239Z,787.83562
2023-02-09T17:05:02.885Z,824
2023-02-09T17:10:04.516Z,799.55556
2023-02-09T17:15:06.214Z,824
2023-02-09T17:20:07.863Z,811.60563
2023-02-09T17:25:09.638Z,811.60563
2023-02-09T17:30:11.255Z,787.83562
2023-02-09T17:35:12.905Z,754.52632
2023-02-09T17:40:14.581Z,776.43243
2023-02-09T17:45:16.277Z,765.33333
2023-02-09T17:50:17.914Z,754.52632
2023-02-09T17:55:19.569Z,754.52632
2023-02-09T18:00:21.226Z,849.88235
2023-02-09T18:05:22.854Z,849.88235
2023-02-09T18:10:24.548Z,824
2023-02-09T18:15:26.195Z,787.83562
2023-02-09T18:20:27.851Z,787.83562
2023-02-09T18:25:29.527Z,836.75362
2023-02-09T18:30:31.363Z,849.88235
2023-02-09T18:35:32.985Z,836.75362
2023-02-09T18:40:34.700Z,863.40299
2023-02-09T18:45:36.374Z,799.55556
2023-02-09T18:50:37.999Z,824
2023-02-09T18:55:39.696Z,799.55556
2023-02-09T19:00:41.516Z,765.33333
2023-02-09T19:05:43.149Z,787.83562
2023-02-09T19:10:44.731Z,836.75362
2023-02-09T19:15:46.883Z,849.88235
2023-02-09T19:20:48.688Z,877.33333
2023-02-09T19:25:50.327Z,877.33333
2023-02-09T19:30:51.987Z,906.5
2023-02-09T19:35:53.661Z,937.54839
2023-02-09T19:41:09.558Z,0
2023-02-09T19:46:12.485Z,863.40299
2023-02-09T19:51:14.144Z,824
2023-02-09T19:56:16.049Z,863.40299
2023-02-09T20:01:17.683Z,937.54839
2023-02-09T20:06:19.357Z,863.40299
2023-02-09T20:11:21.064Z,0
2023-02-09T20:16:22.807Z,0
2023-02-09T20:21:24.490Z,0
2023-02-09T20:26:26.117Z,0
2023-02-09T20:31:27.719Z,0
2023-02-09T20:36:29.386Z,0
2023-02-09T20:41:31.039Z,0
2023-02-09T20:46:32.745Z,0
2023-02-09T20:51:34.347Z,0
2023-02-09T20:56:35.990Z,0
2023-02-09T21:01:37.556Z,0
2023-02-09T21:06:39.292Z,0
2023-02-09T21:11:40.966Z,0
2023-02-09T21:16:42.648Z,0
2023-02-09T21:21:44.330Z,0
2023-02-09T21:26:45.920Z,0
2023-02-09T21:31:48.206Z,0
2023-02-09T21:36:49.905Z,0
2023-02-09T21:41:51.500Z,0
2023-02-09T21:46:53.117Z,0
2023-02-09T21:51:54.748Z,0
2023-02-09T21:56:56.400Z,0
2023-02-09T22:01:58.032Z,0
2023-02-09T22:06:59.676Z,863.40299
2023-02-09T22:12:01.418Z,504
2023-02-09T22:17:03.017Z,429.03937
2023-02-09T22:22:04.646Z,470.49573
2023-02-09T22:27:06.347Z,677.33333
2023-02-09T22:32:08.001Z,824
2023-02-09T22:37:09.629Z,849.88235
2023-02-09T22:42:11.397Z,0
2023-02-09T22:47:13.063Z,0
2023-02-09T22:52:14.844Z,0
2023-02-09T22:57:16.483Z,0
2023-02-09T23:02:18.185Z,0
2023-02-09T23:07:19.843Z,0
2023-02-09T23:12:21.528Z,0
2023-02-09T23:17:23.220Z,0
2023-02-09T23:22:24.862Z,0
2023-02-09T23:27:26.503Z,0
2023-02-09T23:32:28.122Z,0
2023-02-09T23:37:37.543Z,0
2023-02-09T23:42:40.164Z,0
2023-02-09T23:47:41.787Z,0
2023-02-09T23:52:43.464Z,0
2023-02-09T23:57:45.164Z,0
